Time;durP1;ratioP1;P1;durP2;ratioP2;P2;SDS_P1;SDS_P2;PMS_P1;PMS_P2;Temp;Humidity;BMP_temperature;BMP_pressure;BME280_temperature;BME280_humidity;BME280_pressure;Samples;Min_cycle;Max_cycle;Signal;HPM_P1;HPM_P2
2021/09/27 00:00:54;;;;;;;15.97;13.03;;;;;;;20.82;68.24;98144.28;8447793;28;20202;-64
2021/09/27 00:04:58;;;;;;;15.53;13.87;;;;;;;20.77;68.59;98142.03;8449002;28;20194;-64
2021/09/27 00:09:01;;;;;;;14.70;13.07;;;;;;;20.72;68.17;98146.03;8448877;28;20202;-64
2021/09/27 00:13:05;;;;;;;14.80;13.33;;;;;;;20.60;69.12;98151.34;8454591;28;20202;-64
2021/09/27 00:17:09;;;;;;;15.10;13.60;;;;;;;20.61;68.66;98141.63;8455380;28;20233;-64
2021/09/27 00:21:18;;;;;;;18.07;13.93;;;;;;;20.56;68.66;98134.09;8455303;28;20202;-64
2021/09/27 00:25:23;;;;;;;15.80;12.83;;;;;;;20.60;68.39;98143.44;8455156;28;20205;-64
2021/09/27 00:29:27;;;;;;;17.00;13.83;;;;;;;20.58;68.93;98144.47;8454983;28;20231;-64
2021/09/27 00:33:30;;;;;;;16.20;13.60;;;;;;;20.59;68.60;98149.63;8454940;28;20219;-64
2021/09/27 00:37:34;;;;;;;13.20;11.90;;;;;;;20.62;68.22;98144.16;8454708;28;20250;-64
2021/09/27 00:41:38;;;;;;;14.57;12.40;;;;;;;20.61;68.07;98133.75;8454457;28;20234;-64
2021/09/27 00:45:43;;;;;;;13.17;11.77;;;;;;;20.60;68.22;98134.69;8454698;28;20202;-64
2021/09/27 00:49:48;;;;;;;14.00;12.47;;;;;;;20.59;68.35;98125.94;8454320;28;20206;-64
2021/09/27 00:53:54;;;;;;;15.83;12.57;;;;;;;20.55;68.40;98123.72;8454231;28;20209;-64
2021/09/27 00:57:57;;;;;;;13.67;12.27;;;;;;;20.51;68.47;98110.78;8454032;28;20417;-64
2021/09/27 01:02:00;;;;;;;13.87;12.47;;;;;;;20.50;68.61;98105.66;8454217;28;20206;-64
2021/09/27 01:06:13;;;;;;;13.77;11.80;;;;;;;20.53;68.49;98107.22;8453846;28;20208;-64
2021/09/27 01:10:49;;;;;;;14.97;12.03;;;;;;;20.52;68.38;98101.09;8454014;28;20386;-64
2021/09/27 01:15:08;;;;;;;13.97;12.57;;;;;;;20.50;67.87;98103.88;8453629;28;20390;-64
2021/09/27 01:19:34;;;;;;;14.20;12.70;;;;;;;20.43;68.53;98107.16;8453691;28;20226;-64
2021/09/27 01:24:10;;;;;;;14.83;12.77;;;;;;;20.49;68.69;98122.41;8452127;28;20208;-64
2021/09/27 01:28:22;;;;;;;14.43;12.50;;;;;;;20.50;68.03;98124.94;8453488;28;20204;-64
2021/09/27 01:32:33;;;;;;;13.47;11.77;;;;;;;20.48;68.31;98126.00;8453151;28;20206;-64
2021/09/27 01:36:43;;;;;;;15.73;14.00;;;;;;;20.31;69.06;98128.22;8453143;28;20200;-64
2021/09/27 01:41:02;;;;;;;14.47;12.97;;;;;;;20.31;68.56;98125.59;8452641;28;20228;-64
2021/09/27 01:45:09;;;;;;;14.90;13.40;;;;;;;20.33;68.71;98127.25;8452705;28;20230;-64
2021/09/27 01:49:20;;;;;;;14.50;12.83;;;;;;;20.25;69.14;98127.88;8452575;28;20206;-64
2021/09/27 01:53:26;;;;;;;16.67;13.93;;;;;;;20.14;69.82;98106.88;8452680;28;20226;-65
2021/09/27 01:57:39;;;;;;;16.47;13.67;;;;;;;20.21;69.55;98115.94;8451826;28;20235;-65
2021/09/27 02:01:51;;;;;;;15.47;13.80;;;;;;;20.17;69.65;98128.50;8452206;28;20366;-64
2021/09/27 02:06:00;;;;;;;15.40;13.43;;;;;;;20.24;69.17;98119.16;8451795;28;20270;-64
2021/09/27 02:10:08;;;;;;;14.57;12.97;;;;;;;20.18;69.82;98119.69;8451822;28;20198;-64
2021/09/27 02:14:15;;;;;;;13.87;12.30;;;;;;;20.21;69.21;98113.31;8451761;28;20199;-64
2021/09/27 02:18:23;;;;;;;16.07;13.17;;;;;;;20.20;69.18;98123.00;8451568;28;20526;-64
2021/09/27 02:22:32;;;;;;;14.87;13.37;;;;;;;20.22;69.43;98112.34;8451459;28;20205;-64
2021/09/27 02:26:35;;;;;;;14.33;12.83;;;;;;;20.18;68.88;98119.69;8451337;28;20199;-64
2021/09/27 02:30:44;;;;;;;16.47;13.40;;;;;;;20.20;68.79;98104.59;8451196;28;20514;-64
2021/09/27 02:34:53;;;;;;;14.97;12.97;;;;;;;20.23;68.84;98111.41;8450602;28;20226;-64
2021/09/27 02:39:01;;;;;;;13.60;12.20;;;;;;;20.24;68.72;98113.91;8451120;28;20225;-64
2021/09/27 02:43:08;;;;;;;13.47;11.73;;;;;;;20.25;68.82;98112.09;8450770;28;20209;-64
2021/09/27 02:47:13;;;;;;;15.17;13.30;;;;;;;20.21;69.08;98105.44;8450927;28;20198;-64
2021/09/27 02:51:16;;;;;;;12.93;11.73;;;;;;;20.29;68.56;98109.09;8450839;28;20209;-64
2021/09/27 02:55:25;;;;;;;14.70;12.73;;;;;;;20.28;68.80;98117.13;8450428;28;20218;-64
2021/09/27 02:59:36;;;;;;;14.63;13.13;;;;;;;20.22;68.81;98105.31;8450347;28;20404;-64
2021/09/27 03:03:50;;;;;;;13.83;12.37;;;;;;;20.24;69.07;98105.19;8450000;28;20199;-64
2021/09/27 03:08:05;;;;;;;14.63;13.10;;;;;;;20.12;69.16;98101.75;8450098;28;20198;-64
2021/09/27 03:12:20;;;;;;;16.30;13.50;;;;;;;20.15;69.02;98092.78;8449959;28;20201;-64
2021/09/27 03:16:34;;;;;;;15.17;13.67;;;;;;;20.21;68.63;98101.00;8449900;28;20198;-64
2021/09/27 03:20:55;;;;;;;14.53;13.03;;;;;;;20.25;68.49;98104.22;8449946;28;20427;-64
2021/09/27 03:25:07;;;;;;;16.70;15.00;;;;;;;20.21;68.71;98102.81;8449765;28;20204;-64
2021/09/27 03:29:16;;;;;;;16.90;15.20;;;;;;;20.22;68.65;98100.06;8449753;28;20212;-64
2021/09/27 03:33:28;;;;;;;16.60;14.77;;;;;;;20.20;68.38;98099.34;8449559;28;20258;-64
2021/09/27 03:37:39;;;;;;;15.87;14.30;;;;;;;20.20;68.54;98104.59;8449656;28;20203;-64
2021/09/27 03:41:48;;;;;;;15.57;13.73;;;;;;;20.20;68.67;98096.72;8449135;28;20226;-64
2021/09/27 03:46:01;;;;;;;17.57;15.33;;;;;;;20.19;68.76;98099.47;8451741;28;20208;-64
2021/09/27 03:50:11;;;;;;;16.70;15.10;;;;;;;20.13;68.88;98102.59;8456340;28;20209;-64
2021/09/27 03:54:17;;;;;;;16.70;14.37;;;;;;;20.17;68.76;98107.47;8456188;28;20199;-64
2021/09/27 03:58:27;;;;;;;16.87;15.07;;;;;;;20.17;68.83;98096.13;8454998;28;20230;-64
2021/09/27 04:02:37;;;;;;;17.40;14.73;;;;;;;20.13;68.95;98094.72;8453230;28;20194;-64
2021/09/27 04:06:48;;;;;;;17.10;15.30;;;;;;;20.11;69.00;98095.66;8454676;28;20482;-64
2021/09/27 04:11:04;;;;;;;17.13;15.20;;;;;;;20.10;68.67;98096.63;8454573;28;20209;-64
2021/09/27 04:15:13;;;;;;;18.20;15.73;;;;;;;20.05;69.22;98098.78;8453363;28;20479;-64
2021/09/27 04:19:24;;;;;;;17.57;15.20;;;;;;;20.08;68.41;98093.28;8455400;28;20548;-64
2021/09/27 04:23:31;;;;;;;17.77;15.87;;;;;;;20.01;68.56;98097.38;8455363;28;20511;-64
2021/09/27 04:27:50;;;;;;;20.10;16.13;;;;;;;20.02;68.16;98091.16;8455174;28;20492;-64
2021/09/27 04:32:01;;;;;;;17.27;15.43;;;;;;;19.96;68.26;98091.66;8454927;28;20203;-64
2021/09/27 04:36:14;;;;;;;21.40;15.97;;;;;;;19.92;68.20;98092.88;8455009;28;20223;-65
2021/09/27 04:40:18;;;;;;;21.70;19.50;;;;;;;19.87;68.36;98087.13;8454884;28;20417;-64
2021/09/27 04:44:30;;;;;;;19.20;17.17;;;;;;;19.91;67.89;98097.28;8454241;28;20201;-64
2021/09/27 04:49:01;;;;;;;19.77;17.67;;;;;;;19.85;68.24;98089.88;8451673;28;20191;-64
2021/09/27 04:53:16;;;;;;;19.80;17.53;;;;;;;19.84;68.30;98097.91;8454304;28;20205;-65
2021/09/27 04:57:26;;;;;;;19.33;17.33;;;;;;;19.81;68.04;98096.34;8453411;28;20296;-65
2021/09/27 05:01:54;;;;;;;19.03;17.03;;;;;;;19.75;67.61;98085.50;8453580;28;20529;-65
2021/09/27 05:06:14;;;;;;;18.90;16.77;;;;;;;19.80;67.92;98093.84;8422791;28;20242;-65
2021/09/27 05:10:33;;;;;;;19.97;17.77;;;;;;;19.78;67.59;98090.50;8420085;28;20212;-65
2021/09/27 05:14:58;;;;;;;21.33;17.63;;;;;;;19.72;67.79;98094.44;8434091;28;20218;-65
2021/09/27 05:19:24;;;;;;;18.70;16.60;;;;;;;19.77;67.29;98099.34;8453790;28;20227;-64
2021/09/27 05:23:33;;;;;;;17.67;15.87;;;;;;;19.70;67.46;98094.56;8450687;28;20204;-65
2021/09/27 05:28:04;;;;;;;20.70;16.60;;;;;;;19.64;67.77;98091.56;8453571;28;20379;-65
2021/09/27 05:32:41;;;;;;;19.93;17.83;;;;;;;19.68;67.51;98091.19;8453140;28;20203;-64
2021/09/27 05:37:12;;;;;;;20.63;18.43;;;;;;;19.61;67.88;98091.81;8432987;28;20199;-65
2021/09/27 05:41:22;;;;;;;21.77;19.33;;;;;;;19.69;67.92;98098.13;8452747;28;20418;-65
2021/09/27 05:45:32;;;;;;;20.50;18.40;;;;;;;19.68;67.58;98090.38;8452866;28;20205;-66
2021/09/27 05:49:45;;;;;;;21.27;19.10;;;;;;;19.70;68.13;98094.56;8452633;28;20206;-65
2021/09/27 05:53:58;;;;;;;20.37;18.17;;;;;;;19.78;67.91;98096.63;8452439;28;20267;-65
2021/09/27 05:58:05;;;;;;;23.17;20.67;;;;;;;19.65;68.19;98098.50;8452436;28;20256;-65
2021/09/27 06:02:19;;;;;;;21.13;18.60;;;;;;;19.78;67.78;98101.00;8452110;28;20238;-65
2021/09/27 06:06:33;;;;;;;22.50;20.20;;;;;;;19.78;68.14;98101.00;8452002;28;20211;-66
2021/09/27 06:10:41;;;;;;;21.90;19.57;;;;;;;19.75;68.15;98122.28;8451344;28;20204;-65
2021/09/27 06:14:45;;;;;;;20.77;18.77;;;;;;;19.73;67.98;98114.53;8451884;28;20200;-65
2021/09/27 06:19:03;;;;;;;23.13;20.03;;;;;;;19.81;67.66;98113.91;8451495;28;20209;-65
2021/09/27 06:23:22;;;;;;;27.67;21.53;;;;;;;19.85;68.33;98113.53;8451413;28;20205;-65
2021/09/27 06:27:31;;;;;;;24.87;22.27;;;;;;;19.90;67.45;98100.88;8451606;28;20207;-65
2021/09/27 06:31:39;;;;;;;20.80;17.47;;;;;;;19.93;67.59;98107.66;8450936;28;20211;-65
2021/09/27 06:35:45;;;;;;;21.90;16.57;;;;;;;19.95;67.43;98104.91;8451224;28;20232;-65
2021/09/27 06:39:48;;;;;;;25.17;22.40;;;;;;;19.78;67.94;98101.00;8450835;28;20227;-65
2021/09/27 06:43:53;;;;;;;21.57;18.10;;;;;;;20.07;66.95;98103.94;8450871;28;20215;-65
2021/09/27 06:47:56;;;;;;;22.67;20.37;;;;;;;20.14;67.25;98122.66;8450692;28;20198;-65
2021/09/27 06:52:03;;;;;;;26.53;22.73;;;;;;;19.84;68.53;98121.56;8450643;28;20391;-64
2021/09/27 06:56:07;;;;;;;24.77;22.17;;;;;;;19.80;68.32;98113.09;8450247;28;20241;-65
2021/09/27 07:00:12;;;;;;;21.27;18.53;;;;;;;20.21;66.71;98124.66;8450468;28;20383;-64
2021/09/27 07:04:15;;;;;;;20.17;18.03;;;;;;;20.51;65.69;98126.56;8450235;28;20198;-64
2021/09/27 07:08:20;;;;;;;18.67;16.50;;;;;;;20.86;64.58;98117.56;8450207;28;20384;-64
2021/09/27 07:12:23;;;;;;;17.87;15.97;;;;;;;21.07;64.48;98114.91;8450055;28;20211;-64
2021/09/27 07:16:25;;;;;;;19.30;17.30;;;;;;;21.37;62.91;98107.16;8449856;28;20202;-64
2021/09/27 07:20:39;;;;;;;23.03;19.33;;;;;;;21.33;63.85;98114.50;8449749;28;20226;-64
2021/09/27 07:24:45;;;;;;;21.03;18.23;;;;;;;21.66;62.59;98110.75;8449815;28;20200;-64
2021/09/27 07:28:52;;;;;;;21.27;18.97;;;;;;;21.66;62.84;98112.56;8449672;28;20387;-64
2021/09/27 07:32:56;;;;;;;19.67;17.70;;;;;;;21.65;62.85;98119.63;8449458;28;20218;-64
2021/09/27 07:36:59;;;;;;;23.73;21.30;;;;;;;21.76;63.42;98110.78;8449310;28;20202;-64
2021/09/27 07:41:03;;;;;;;22.60;19.57;;;;;;;21.89;62.34;98117.59;8449368;28;20230;-64
2021/09/27 07:45:09;;;;;;;22.00;19.60;;;;;;;21.81;63.42;98113.84;8449388;28;20489;-64
2021/09/27 07:49:11;;;;;;;21.20;17.53;;;;;;;22.31;61.32;98109.47;8448460;28;20197;-70
2021/09/27 07:53:15;;;;;;;21.80;19.50;;;;;;;22.05;62.20;98110.84;8449234;28;20198;-71
2021/09/27 07:57:20;;;;;;;20.80;18.63;;;;;;;22.47;60.94;98116.88;8448904;28;20236;-72
2021/09/27 08:01:23;;;;;;;19.53;17.53;;;;;;;22.71;59.69;98113.75;8449033;28;20248;-71
2021/09/27 08:05:29;;;;;;;22.73;16.53;;;;;;;22.74;59.84;98109.03;8449214;28;20390;-72
2021/09/27 08:09:32;;;;;;;18.53;15.53;;;;;;;23.27;58.28;98107.69;8449275;28;20199;-72
2021/09/27 08:13:37;;;;;;;18.07;15.27;;;;;;;23.39;58.75;98103.88;8448947;28;20204;-72
2021/09/27 08:17:40;;;;;;;18.27;16.37;;;;;;;23.08;58.80;98108.59;8448737;28;20203;-72
2021/09/27 08:21:43;;;;;;;17.20;15.60;;;;;;;23.74;57.80;98104.97;8448488;28;20226;-73
2021/09/27 08:25:46;;;;;;;18.70;16.70;;;;;;;23.02;59.17;98106.50;8448741;28;20199;-71
2021/09/27 08:29:50;;;;;;;17.37;15.23;;;;;;;23.81;56.61;98110.50;8448609;28;20203;-73
2021/09/27 08:33:54;;;;;;;15.13;13.67;;;;;;;23.27;57.54;98097.13;8453703;28;20218;-73
2021/09/27 08:37:57;;;;;;;15.10;13.50;;;;;;;24.11;55.81;98108.50;8455061;28;20522;-71
2021/09/27 08:42:03;;;;;;;15.00;13.43;;;;;;;24.45;54.47;98105.19;8455129;28;20231;-73
2021/09/27 08:46:13;;;;;;;13.27;11.97;;;;;;;24.38;55.08;98105.78;8454555;28;20214;-73
2021/09/27 08:50:27;;;;;;;12.80;11.47;;;;;;;24.05;54.75;98107.28;8454779;28;20209;-72
2021/09/27 08:54:31;;;;;;;14.30;12.67;;;;;;;23.53;56.45;98105.22;8455086;28;20379;-73
2021/09/27 08:58:38;;;;;;;14.63;12.73;;;;;;;22.98;58.18;98091.88;8454733;28;20237;-73
2021/09/27 09:02:54;;;;;;;14.03;12.63;;;;;;;23.01;58.04;98099.53;8453986;28;20229;-73
2021/09/27 09:06:59;;;;;;;14.60;12.37;;;;;;;22.85;58.50;98097.50;8454427;28;20201;-75
2021/09/27 09:11:08;;;;;;;12.43;10.73;;;;;;;23.33;56.90;98104.44;8455015;28;20210;-76
2021/09/27 09:15:16;;;;;;;14.27;12.77;;;;;;;23.26;58.24;98097.25;8455134;28;20199;-72
2021/09/27 09:19:23;;;;;;;13.93;12.53;;;;;;;23.00;58.91;98100.53;8454923;28;20224;-73
2021/09/27 09:23:30;;;;;;;14.30;12.80;;;;;;;23.08;58.94;98105.13;8454771;28;20223;-74
2021/09/27 09:27:33;;;;;;;14.60;13.17;;;;;;;23.07;59.05;98100.78;8454012;28;20198;-72
2021/09/27 09:31:43;;;;;;;17.90;11.27;;;;;;;23.42;57.84;98100.94;8453361;28;20209;-72
2021/09/27 09:35:47;;;;;;;14.40;11.90;;;;;;;23.45;57.41;98101.63;8453223;28;20222;-73
2021/09/27 09:39:58;;;;;;;15.33;12.50;;;;;;;24.55;55.15;98104.13;8453489;28;20208;-74
2021/09/27 09:44:20;;;;;;;15.70;14.10;;;;;;;24.39;54.18;98098.69;8452146;28;20202;-74
2021/09/27 09:48:26;;;;;;;15.20;12.70;;;;;;;24.41;53.43;98096.72;8453192;28;20390;-74
2021/09/27 09:52:37;;;;;;;14.47;12.97;;;;;;;24.51;54.28;98093.97;8452591;28;20209;-75
2021/09/27 09:56:46;;;;;;;11.17;10.07;;;;;;;24.77;53.43;98091.41;8452190;28;20241;-75
2021/09/27 10:00:57;;;;;;;11.47;10.33;;;;;;;24.50;53.44;98101.09;8452143;28;20226;-75
2021/09/27 10:05:08;;;;;;;11.30;10.20;;;;;;;24.64;52.99;98093.63;8452405;28;20200;-74
2021/09/27 10:09:17;;;;;;;9.77;8.63;;;;;;;24.34;53.60;98099.13;8453087;28;20424;-73
2021/09/27 10:13:39;;;;;;;10.30;8.27;;;;;;;24.40;52.59;98100.34;8452194;28;20208;-73
2021/09/27 10:17:42;;;;;;;8.77;7.93;;;;;;;25.35;50.65;98097.88;8451706;28;20206;-75
2021/09/27 10:21:54;;;;;;;8.57;7.77;;;;;;;24.97;51.25;98087.53;8451535;28;20388;-65
2021/09/27 10:26:15;;;;;;;10.03;8.17;;;;;;;24.65;51.56;98095.28;8451626;28;20229;-65
2021/09/27 10:30:21;;;;;;;9.27;8.27;;;;;;;24.31;52.98;98096.81;8451289;28;20210;-64
2021/09/27 10:34:26;;;;;;;10.23;8.37;;;;;;;24.08;53.70;98096.41;8451077;28;20535;-65
2021/09/27 10:38:32;;;;;;;10.70;8.20;;;;;;;23.92;54.77;98098.91;8450691;28;20203;-65
2021/09/27 10:42:41;;;;;;;10.93;9.37;;;;;;;23.92;54.57;98094.44;8450380;28;20264;-64
2021/09/27 10:46:48;;;;;;;9.40;8.50;;;;;;;24.59;53.50;98091.41;8450131;28;20384;-65
2021/09/27 10:50:56;;;;;;;13.00;8.83;;;;;;;24.50;52.63;98097.59;8450133;28;20206;-65
2021/09/27 10:55:11;;;;;;;9.17;8.30;;;;;;;25.37;50.80;98077.34;8450303;28;20315;-64
2021/09/27 10:59:29;;;;;;;8.37;7.53;;;;;;;25.41;48.90;98078.69;8450428;28;20299;-73
2021/09/27 11:03:34;;;;;;;10.43;7.63;;;;;;;25.67;48.43;98080.44;8450135;28;20228;-62
2021/09/27 11:07:42;;;;;;;11.50;8.27;;;;;;;25.94;48.20;98079.38;8450217;28;20496;-62
2021/09/27 11:12:04;;;;;;;9.77;8.37;;;;;;;26.22;46.69;98082.56;8450199;28;20216;-78
2021/09/27 11:16:17;;;;;;;9.47;8.57;;;;;;;25.88;46.56;98078.16;8450409;28;20201;-71
2021/09/27 11:21:01;;;;;;;20.03;9.07;;;;;;;25.86;47.05;98076.69;8450052;28;20200;-71
2021/09/27 11:25:22;;;;;;;10.33;8.43;;;;;;;25.02;50.34;98073.84;8449955;28;20496;-70
2021/09/27 11:29:47;;;;;;;9.60;7.40;;;;;;;24.69;50.63;98065.66;8437228;28;20202;-70
2021/09/27 11:33:53;;;;;;;12.77;8.10;;;;;;;24.38;52.33;98079.31;8449480;28;20233;-71
2021/09/27 11:38:19;;;;;;;11.90;7.70;;;;;;;24.13;52.88;98082.72;8448287;28;20221;-69
2021/09/27 11:42:34;;;;;;;8.53;7.30;;;;;;;23.98;53.06;98077.13;8434362;28;20226;-72
2021/09/27 11:46:48;;;;;;;8.50;7.40;;;;;;;23.85;53.63;98074.03;8445700;28;20204;-70
2021/09/27 11:51:07;;;;;;;8.00;7.30;;;;;;;23.81;53.75;98074.31;8448792;28;20194;-70
2021/09/27 11:55:11;;;;;;;10.30;8.00;;;;;;;23.88;53.91;98073.75;8448755;28;20211;-70
2021/09/27 11:59:24;;;;;;;8.80;7.97;;;;;;;23.93;53.51;98074.09;8448729;28;20211;-70
2021/09/27 12:03:32;;;;;;;8.40;7.60;;;;;;;24.08;53.45;98075.22;8448867;28;20218;-69
2021/09/27 12:07:42;;;;;;;10.13;7.60;;;;;;;24.93;50.91;98062.34;8451559;28;20196;-64
2021/09/27 12:11:49;;;;;;;8.37;7.50;;;;;;;25.42;49.76;98063.59;8454710;28;20194;-64
2021/09/27 12:15:55;;;;;;;8.27;7.53;;;;;;;25.31;47.50;98054.13;8454724;28;20191;-64
2021/09/27 12:20:00;;;;;;;7.17;6.57;;;;;;;25.53;48.14;98053.56;8454568;28;20398;-65
2021/09/27 12:24:09;;;;;;;7.67;6.63;;;;;;;25.70;46.15;98048.28;8454296;28;20225;-65
2021/09/27 12:28:28;;;;;;;12.20;6.00;;;;;;;25.90;46.16;98043.53;8452862;28;20198;-66
2021/09/27 12:32:34;;;;;;;6.43;4.87;;;;;;;26.23;44.72;98052.38;8452031;28;20203;-63
2021/09/27 12:36:38;;;;;;;10.97;5.67;;;;;;;25.99;45.38;98052.34;8453571;28;20190;-64
2021/09/27 12:40:48;;;;;;;8.13;4.97;;;;;;;26.23;43.88;98047.06;8453226;28;20552;-64
2021/09/27 12:44:56;;;;;;;5.13;4.60;;;;;;;26.29;43.18;98046.41;8451026;28;20218;-64
2021/09/27 12:49:02;;;;;;;14.50;5.40;;;;;;;26.27;44.41;98045.75;8453179;28;20191;-64
2021/09/27 12:53:08;;;;;;;7.13;5.73;;;;;;;25.88;45.64;98045.50;8452598;28;20198;-64
2021/09/27 12:57:22;;;;;;;11.37;4.77;;;;;;;25.59;44.48;98048.56;8450990;28;20226;-64
2021/09/27 13:01:26;;;;;;;4.87;4.37;;;;;;;25.54;44.58;98046.41;8452435;28;20195;-65
2021/09/27 13:05:48;;;;;;;5.53;3.90;;;;;;;26.02;43.54;98052.03;8453156;28;20197;-64
2021/09/27 13:10:09;;;;;;;5.83;4.27;;;;;;;26.18;41.57;98045.88;8451406;28;20209;-64
2021/09/27 13:14:22;;;;;;;6.93;3.80;;;;;;;26.24;41.40;98035.44;8451380;28;20200;-65
2021/09/27 13:18:38;;;;;;;4.03;3.73;;;;;;;25.82;43.01;98036.38;8450146;28;20391;-64
2021/09/27 13:22:45;;;;;;;4.03;3.73;;;;;;;25.48;43.36;98044.41;8452525;28;20551;-64
2021/09/27 13:26:53;;;;;;;4.00;3.60;;;;;;;25.48;43.35;98042.59;8450230;28;20193;-70
2021/09/27 13:31:07;;;;;;;4.70;3.60;;;;;;;25.44;42.44;98035.97;8452418;28;20402;-70
2021/09/27 13:35:27;;;;;;;3.20;2.90;;;;;;;25.70;40.40;98035.88;8451432;28;20556;-70
2021/09/27 13:39:39;;;;;;;4.47;3.10;;;;;;;26.02;40.41;98036.09;8450142;28;20203;-70
2021/09/27 13:43:46;;;;;;;3.93;3.10;;;;;;;26.01;40.35;98037.09;8452200;28;20218;-69
2021/09/27 13:47:50;;;;;;;4.20;3.00;;;;;;;25.75;40.85;98044.16;8452726;28;20491;-70
2021/09/27 13:51:54;;;;;;;6.00;3.03;;;;;;;25.72;41.09;98047.16;8452551;28;20214;-69
2021/09/27 13:55:57;;;;;;;3.37;3.00;;;;;;;25.44;42.03;98048.38;8452136;28;20237;-69
2021/09/27 14:00:00;;;;;;;3.93;3.30;;;;;;;25.14;42.40;98038.13;8452133;28;20220;-72
2021/09/27 14:04:05;;;;;;;5.23;3.60;;;;;;;24.92;44.32;98041.31;8451225;28;20247;-70
2021/09/27 14:08:09;;;;;;;5.67;3.10;;;;;;;24.82;44.21;98037.97;8448198;28;20325;-69
2021/09/27 14:12:11;;;;;;;4.93;3.37;;;;;;;24.76;44.65;98039.41;8450848;28;20498;-69
2021/09/27 14:16:15;;;;;;;5.50;3.53;;;;;;;24.58;43.80;98045.59;8450852;28;20209;-69
2021/09/27 14:20:20;;;;;;;3.50;3.20;;;;;;;24.66;44.23;98049.28;8450695;28;20369;-70
2021/09/27 14:24:23;;;;;;;9.10;3.47;;;;;;;24.58;44.09;98048.25;8450769;28;20228;-69
2021/09/27 14:28:30;;;;;;;13.23;3.60;;;;;;;24.78;45.03;98048.03;8450948;28;20205;-69
2021/09/27 14:32:33;;;;;;;3.30;2.77;;;;;;;24.66;44.30;98042.16;8450557;28;20388;-69
2021/09/27 14:36:37;;;;;;;3.63;3.03;;;;;;;24.57;43.78;98037.81;8450222;28;20190;-64
2021/09/27 14:40:41;;;;;;;4.03;3.23;;;;;;;24.53;43.35;98036.44;8450277;28;20199;-64
2021/09/27 14:44:44;;;;;;;3.53;2.83;;;;;;;24.49;43.42;98030.59;8451200;28;20227;-63
2021/09/27 14:48:48;;;;;;;3.77;3.03;;;;;;;24.39;44.42;98038.63;8450890;28;20203;-64
2021/09/27 14:52:53;;;;;;;3.27;2.90;;;;;;;24.37;44.27;98040.63;8450694;28;20204;-64
2021/09/27 14:56:56;;;;;;;4.97;3.20;;;;;;;24.43;45.92;98041.81;8450590;28;20568;-63
2021/09/27 15:01:00;;;;;;;4.87;2.87;;;;;;;24.43;45.01;98043.59;8450401;28;20204;-64
2021/09/27 15:05:04;;;;;;;4.60;3.03;;;;;;;24.35;45.54;98045.22;8449948;28;20222;-64
2021/09/27 15:09:08;;;;;;;3.60;3.10;;;;;;;24.33;45.68;98041.06;8449949;28;20199;-64
2021/09/27 15:13:13;;;;;;;5.17;3.30;;;;;;;24.23;46.26;98048.25;8450077;28;20215;-64
2021/09/27 15:17:15;;;;;;;5.63;3.10;;;;;;;24.22;46.44;98058.03;8450106;28;20212;-64
2021/09/27 15:21:18;;;;;;;3.10;2.80;;;;;;;24.11;47.04;98059.06;8449424;28;20381;-64
2021/09/27 15:25:29;;;;;;;3.53;3.10;;;;;;;24.01;47.21;98060.97;8449452;28;20327;-64
2021/09/27 15:29:32;;;;;;;4.23;3.00;;;;;;;23.87;47.86;98062.31;8449489;28;20508;-64
2021/09/27 15:33:36;;;;;;;4.37;3.07;;;;;;;23.84;48.26;98069.69;8448519;28;20222;-64
2021/09/27 15:37:40;;;;;;;3.73;3.00;;;;;;;23.76;48.88;98070.41;8448628;28;20190;-64
2021/09/27 15:41:45;;;;;;;3.70;3.40;;;;;;;23.62;49.75;98069.94;8447408;28;20405;-64
2021/09/27 15:45:49;;;;;;;3.70;3.20;;;;;;;23.61;49.93;98070.13;8445540;28;20214;-65
2021/09/27 15:49:51;;;;;;;3.60;3.30;;;;;;;23.46;50.82;98076.88;8448315;28;20195;-71
2021/09/27 15:53:54;;;;;;;3.43;3.13;;;;;;;23.45;51.00;98075.19;8448304;28;20195;-69
2021/09/27 15:57:59;;;;;;;4.37;3.20;;;;;;;23.32;50.85;98073.75;8448333;28;20284;-69
2021/09/27 16:02:03;;;;;;;3.23;2.80;;;;;;;23.30;51.45;98083.59;8448384;28;20198;-70
2021/09/27 16:06:08;;;;;;;8.17;3.40;;;;;;;23.25;52.45;98077.09;8448131;28;20228;-69
2021/09/27 16:10:11;;;;;;;6.40;3.43;;;;;;;23.19;51.41;98079.34;8449088;28;20199;-69
2021/09/27 16:14:16;;;;;;;4.77;3.60;;;;;;;23.07;51.97;98075.22;8449001;28;20388;-70
2021/09/27 16:18:20;;;;;;;3.97;3.30;;;;;;;23.06;52.21;98084.13;8448850;28;20516;-70
2021/09/27 16:22:24;;;;;;;4.07;3.13;;;;;;;23.00;52.56;98088.13;8448841;28;20217;-70
2021/09/27 16:26:27;;;;;;;4.73;3.00;;;;;;;22.95;53.39;98086.91;8448875;28;20198;-70
2021/09/27 16:30:31;;;;;;;5.57;3.53;;;;;;;22.92;53.46;98092.47;8448622;28;20191;-70
2021/09/27 16:34:36;;;;;;;8.97;3.80;;;;;;;22.81;52.76;98093.47;8448461;28;20218;-69
2021/09/27 16:38:39;;;;;;;7.67;3.70;;;;;;;22.75;53.16;98108.06;8448274;28;20209;-67
2021/09/27 16:42:42;;;;;;;6.67;3.20;;;;;;;22.73;54.19;98112.66;8447266;28;20255;-67
2021/09/27 16:46:46;;;;;;;19.90;4.80;;;;;;;22.68;55.08;98106.97;8448236;28;20198;-67
2021/09/27 16:50:49;;;;;;;5.47;4.17;;;;;;;22.61;55.75;98111.13;8448360;28;20195;-67
2021/09/27 16:54:54;;;;;;;6.80;3.70;;;;;;;22.61;55.81;98125.16;8453149;28;20397;-67
2021/09/27 16:58:59;;;;;;;9.13;4.27;;;;;;;22.52;56.20;98119.91;8453940;28;20415;-66
2021/09/27 17:03:04;;;;;;;6.70;4.10;;;;;;;22.50;56.78;98127.94;8453973;28;20230;-66
2021/09/27 17:07:07;;;;;;;5.07;4.00;;;;;;;22.43;57.18;98130.31;8454189;28;20203;-65
2021/09/27 17:11:10;;;;;;;10.07;4.30;;;;;;;22.42;57.18;98136.56;8453930;28;20199;-65
2021/09/27 17:19:37;;;;;;;5.70;4.00;;;;;;;22.34;58.43;98136.44;8453829;28;20205;-65
2021/09/27 17:23:44;;;;;;;7.00;4.13;;;;;;;22.26;58.82;98138.94;8453650;28;20540;-65
2021/09/27 17:27:47;;;;;;;6.70;4.27;;;;;;;22.25;58.89;98138.06;8453639;28;20206;-66
2021/09/27 17:31:52;;;;;;;6.50;4.13;;;;;;;22.26;59.06;98149.47;8453389;28;20211;-65
2021/09/27 17:35:58;;;;;;;6.50;4.23;;;;;;;22.17;59.32;98150.25;8452656;28;20225;-67
2021/09/27 17:40:01;;;;;;;4.67;4.20;;;;;;;22.13;59.18;98151.50;8452503;28;20206;-77
2021/09/27 17:44:05;;;;;;;6.60;4.60;;;;;;;22.06;59.90;98154.66;8452679;28;20235;-78
2021/09/27 17:48:08;;;;;;;4.87;3.93;;;;;;;22.01;59.86;98156.06;8452649;28;20199;-77
2021/09/27 17:52:16;;;;;;;9.07;4.90;;;;;;;22.00;60.14;98147.31;8452705;28;20217;-78
2021/09/27 17:56:19;;;;;;;12.20;4.60;;;;;;;21.94;60.10;98141.75;8452460;28;20530;-76
2021/09/27 18:00:22;;;;;;;6.30;4.93;;;;;;;21.93;60.29;98132.16;8452105;28;20217;-76
2021/09/27 18:04:24;;;;;;;6.40;4.90;;;;;;;21.92;60.39;98141.06;8451026;28;20229;-76
2021/09/27 18:08:29;;;;;;;7.30;5.00;;;;;;;21.86;59.57;98135.34;8452561;28;20198;-76
2021/09/27 18:12:32;;;;;;;7.50;4.50;;;;;;;21.84;59.03;98133.84;8451916;28;20198;-76
2021/09/27 18:16:37;;;;;;;5.90;5.00;;;;;;;21.82;58.66;98131.31;8451854;28;20208;-77
2021/09/27 18:20:40;;;;;;;8.73;4.90;;;;;;;21.81;59.81;98134.09;8451279;28;20194;-77
2021/09/27 18:24:45;;;;;;;7.37;5.30;;;;;;;21.78;59.84;98147.53;8451505;28;20240;-76
2021/09/27 18:28:48;;;;;;;8.17;4.70;;;;;;;21.73;60.58;98163.75;8451426;28;20206;-76
2021/09/27 18:32:55;;;;;;;13.23;4.57;;;;;;;21.67;60.83;98165.13;8451240;28;20222;-75
2021/09/27 18:36:58;;;;;;;10.83;4.67;;;;;;;21.64;60.57;98162.75;8451186;28;20462;-76
2021/09/27 18:41:06;;;;;;;8.43;4.63;;;;;;;21.62;60.51;98171.75;8450875;28;20205;-76
2021/09/27 18:45:12;;;;;;;10.40;4.67;;;;;;;21.61;60.84;98177.97;8450726;28;20235;-76
2021/09/27 18:49:15;;;;;;;13.47;4.87;;;;;;;21.55;61.45;98189.06;8450871;28;20198;-76
2021/09/27 18:53:20;;;;;;;12.77;5.20;;;;;;;21.46;61.54;98194.16;8450662;28;20393;-66
2021/09/27 18:57:24;;;;;;;11.17;5.30;;;;;;;21.47;61.65;98195.00;8450491;28;20259;-66
2021/09/27 19:01:27;;;;;;;11.87;5.23;;;;;;;21.47;62.24;98189.72;8450666;28;20215;-68
2021/09/27 19:05:30;;;;;;;11.93;5.30;;;;;;;21.42;62.36;98200.63;8450321;28;20229;-67
2021/09/27 19:09:34;;;;;;;10.43;5.60;;;;;;;21.36;62.39;98209.06;8450521;28;20259;-68
2021/09/27 19:13:40;;;;;;;8.10;5.83;;;;;;;21.35;61.92;98207.38;8450056;28;20199;-68
2021/09/27 19:17:44;;;;;;;9.10;5.83;;;;;;;21.25;62.49;98215.22;8449957;28;20206;-67